createdAt,value
2022-10-18T00:45:14.650Z,68.60
2022-10-18T00:47:48.051Z,68.30
2022-10-18T00:50:16.929Z,68.70
2022-10-18T00:52:49.903Z,69.00
2022-10-18T00:55:18.705Z,68.90
2022-10-18T00:57:47.621Z,68.80
2022-10-18T01:47:45.755Z,68.70
2022-10-18T01:50:14.808Z,68.90
2022-10-18T01:52:50.509Z,69.20
2022-10-18T01:55:20.788Z,69.30
2022-10-18T01:58:01.019Z,68.90
2022-10-18T02:47:27.399Z,68.30
2022-10-18T02:49:55.576Z,68.80
2022-10-18T02:52:23.839Z,69.10
2022-10-18T02:54:52.326Z,69.00
2022-10-18T02:57:21.437Z,68.10
2022-10-18T02:59:50.078Z,68.80
2022-10-18T03:46:19.743Z,68.60
2022-10-18T03:48:48.080Z,68.70
2022-10-18T03:51:16.636Z,68.80
2022-10-18T03:53:44.960Z,69.00
2022-10-18T03:56:13.150Z,69.00
2022-10-18T03:58:41.789Z,69.10
2022-10-18T04:30:19.932Z,68.20
2022-10-18T04:32:48.725Z,68.20
2022-10-18T04:35:17.200Z,68.90
2022-10-18T04:37:45.359Z,68.70
2022-10-18T04:40:14.284Z,69.00
2022-10-18T04:42:42.816Z,68.70
2022-10-18T04:45:12.582Z,68.70
2022-10-18T04:47:42.371Z,68.60
2022-10-18T04:50:10.912Z,68.80
2022-10-18T04:52:39.312Z,68.60
2022-10-18T04:55:08.965Z,69.20
2022-10-18T04:57:37.330Z,68.50
2022-10-18T05:00:07.425Z,69.10
2022-10-18T05:02:35.976Z,68.90
2022-10-18T05:05:10.242Z,68.90
2022-10-18T05:07:40.090Z,70.30
2022-10-18T05:10:10.016Z,69.80
2022-10-18T05:12:38.687Z,69.40
2022-10-18T05:15:08.251Z,69.50
2022-10-18T05:17:36.968Z,68.70
2022-10-18T05:20:07.983Z,69.50
2022-10-18T05:22:36.381Z,69.70
2022-10-18T05:25:05.017Z,70.90
2022-10-18T05:27:33.296Z,70.80
2022-10-18T05:30:04.693Z,71.40
2022-10-18T05:32:34.297Z,71.40
2022-10-18T05:35:03.064Z,71.70
2022-10-18T05:37:32.693Z,71.40
2022-10-18T05:40:01.532Z,72.00
2022-10-18T05:42:30.045Z,72.80
2022-10-18T05:44:58.506Z,71.80
2022-10-18T05:47:26.820Z,71.30
2022-10-18T05:49:55.098Z,71.40
2022-10-18T05:52:23.456Z,70.80
2022-10-18T05:54:53.005Z,71.60
2022-10-18T05:57:21.351Z,72.60
2022-10-18T05:59:50.089Z,72.00
2022-10-18T06:02:19.495Z,72.10
2022-10-18T06:04:47.748Z,72.60
2022-10-18T06:07:16.114Z,72.70
2022-10-18T06:09:44.353Z,72.50
2022-10-18T06:12:14.241Z,72.70
2022-10-18T06:14:44.559Z,72.30
2022-10-18T06:17:13.104Z,71.90
2022-10-18T06:19:43.411Z,71.50
2022-10-18T06:22:11.704Z,71.10
2022-10-18T06:24:40.286Z,71.20
2022-10-18T06:27:09.551Z,71.50
2022-10-18T06:29:40.944Z,71.20
2022-10-18T06:32:10.195Z,71.00
2022-10-18T06:34:38.659Z,71.30
2022-10-18T06:37:07.961Z,70.80
2022-10-18T06:39:36.302Z,70.70
2022-10-18T06:42:04.667Z,70.80
2022-10-18T06:44:35.698Z,70.70
2022-10-18T06:47:05.537Z,70.80
2022-10-18T06:49:33.725Z,71.20
2022-10-18T06:52:01.989Z,71.20
2022-10-18T06:54:30.162Z,71.40
2022-10-18T06:56:58.721Z,70.50
2022-10-18T06:59:30.396Z,69.30
2022-10-18T07:01:59.788Z,69.00
2022-10-18T07:04:31.019Z,69.10
2022-10-18T07:06:59.187Z,69.10
2022-10-18T07:09:27.714Z,69.20
2022-10-18T07:11:56.180Z,69.10
2022-10-18T07:14:28.770Z,69.90
2022-10-18T07:17:00.659Z,69.10
2022-10-18T07:19:30.250Z,68.60
2022-10-18T07:21:58.407Z,68.80
2022-10-18T07:24:26.974Z,69.20
2022-10-18T07:26:55.860Z,69.60
2022-10-18T07:29:24.420Z,69.40
2022-10-18T07:31:52.525Z,69.60
2022-10-18T07:34:20.992Z,69.40
2022-10-18T07:36:50.515Z,70.50
2022-10-18T07:39:18.706Z,70.70
2022-10-18T07:41:46.877Z,70.90
2022-10-18T07:44:15.192Z,70.50
2022-10-18T07:46:43.461Z,69.70
2022-10-18T07:49:11.724Z,70.80
2022-10-18T07:51:40.117Z,70.50
2022-10-18T07:54:11.137Z,70.40
2022-10-18T07:56:39.409Z,70.10
2022-10-18T07:59:07.596Z,69.60
2022-10-18T08:01:36.229Z,69.70
2022-10-18T08:04:07.511Z,69.20
2022-10-18T08:06:37.446Z,69.10
2022-10-18T08:09:05.890Z,69.20
2022-10-18T08:11:35.500Z,69.00
2022-10-18T08:14:03.779Z,68.90
2022-10-18T08:19:05.503Z,68.80
2022-10-18T08:21:33.801Z,69.00
2022-10-18T08:24:01.977Z,68.90
2022-10-18T08:26:30.726Z,68.70
2022-10-18T08:29:22.520Z,68.80
2022-10-18T08:31:50.462Z,68.30
2022-10-18T08:34:19.788Z,68.40
2022-10-18T08:36:48.262Z,68.80
2022-10-18T08:39:16.451Z,68.40
2022-10-18T08:42:02.271Z,68.40
2022-10-18T08:44:34.206Z,68.40
2022-10-18T08:47:07.820Z,68.80
2022-10-18T08:49:46.628Z,68.90
2022-10-18T08:52:34.968Z,68.90
2022-10-18T08:55:10.067Z,69.00
2022-10-18T08:57:38.512Z,69.40
2022-10-18T09:00:17.130Z,69.20
2022-10-18T09:03:08.378Z,69.50
2022-10-18T09:05:48.477Z,69.30
2022-10-18T09:08:54.352Z,69.30
2022-10-18T09:11:40.960Z,69.30
2022-10-18T09:14:51.113Z,68.80
2022-10-18T09:17:31.052Z,68.80
2022-10-18T09:20:23.075Z,68.80
2022-10-18T09:22:57.709Z,68.90
2022-10-18T09:25:34.909Z,69.30
2022-10-18T09:28:20.277Z,69.40
2022-10-18T09:30:59.777Z,69.30
2022-10-18T09:33:46.755Z,69.30
2022-10-18T09:36:21.182Z,69.10
2022-10-18T09:38:55.141Z,69.40
2022-10-18T09:41:29.621Z,69.30
2022-10-18T09:44:02.481Z,69.50
2022-10-18T09:46:34.948Z,69.20
2022-10-18T09:49:11.763Z,68.90
2022-10-18T09:51:44.298Z,69.20
2022-10-18T09:54:24.387Z,69.50
2022-10-18T09:56:57.460Z,69.10
2022-10-18T09:59:40.860Z,69.00
2022-10-18T10:02:15.075Z,69.10
2022-10-18T10:04:45.595Z,68.70
2022-10-18T10:07:18.279Z,69.10
2022-10-18T10:09:48.981Z,69.00
2022-10-18T10:12:31.406Z,68.90
2022-10-18T10:15:18.824Z,68.70
2022-10-18T10:17:55.559Z,69.10
2022-10-18T10:20:30.218Z,68.70
2022-10-18T10:23:09.212Z,69.00
2022-10-18T10:25:39.225Z,68.90
2022-10-18T10:28:16.038Z,69.30
2022-10-18T10:30:44.644Z,69.70
2022-10-18T10:33:35.862Z,69.40
2022-10-18T10:36:17.357Z,69.00
2022-10-18T10:38:46.006Z,70.90
2022-10-18T10:41:23.376Z,70.10
2022-10-18T10:43:52.305Z,69.80
2022-10-18T10:46:23.253Z,70.50
2022-10-18T10:49:09.601Z,71.60
2022-10-18T10:51:50.579Z,71.50
2022-10-18T10:54:28.610Z,70.80
2022-10-18T10:57:03.858Z,70.30
2022-10-18T11:02:23.724Z,69.90
2022-10-18T11:04:55.023Z,69.50
2022-10-18T11:07:31.086Z,69.70
2022-10-18T11:10:07.556Z,69.90
2022-10-18T11:12:40.624Z,70.00
2022-10-18T11:15:24.419Z,70.00
2022-10-18T11:18:10.187Z,69.90
2022-10-18T11:20:42.765Z,69.90
2022-10-18T11:23:15.542Z,69.90
2022-10-18T11:26:10.455Z,70.00
2022-10-18T11:29:30.352Z,69.60
2022-10-18T11:32:10.499Z,69.60
2022-10-18T11:34:53.540Z,81.20
2022-10-18T11:37:46.364Z,76.30
2022-10-18T11:40:43.942Z,79.90
2022-10-18T11:43:24.750Z,79.90
2022-10-18T11:46:05.541Z,81.90
2022-10-18T11:48:49.721Z,90.90
2022-10-18T11:51:38.687Z,82.90
2022-10-18T11:54:46.446Z,83.20
2022-10-18T11:57:35.032Z,81.50
2022-10-18T12:00:17.611Z,79.80
2022-10-18T12:03:15.330Z,79.00
2022-10-18T12:05:48.256Z,78.60
2022-10-18T12:08:19.661Z,78.30
2022-10-18T12:11:04.003Z,78.40
2022-10-18T12:13:44.330Z,78.10
2022-10-18T12:16:13.640Z,77.90
2022-10-18T12:18:54.092Z,77.80
2022-10-18T12:21:26.222Z,77.20
2022-10-18T12:23:59.599Z,76.90
2022-10-18T12:26:29.733Z,76.90
2022-10-18T12:29:16.193Z,77.00
2022-10-18T12:31:51.049Z,76.40
2022-10-18T12:34:35.206Z,76.20
2022-10-18T12:37:41.623Z,75.80
2022-10-18T12:40:20.407Z,75.90
2022-10-18T12:42:52.939Z,75.60
2022-10-18T12:45:33.397Z,75.60
2022-10-18T12:48:03.601Z,75.30
2022-10-18T12:50:36.164Z,75.20
2022-10-18T12:53:18.892Z,74.50
2022-10-18T12:55:51.328Z,74.30
2022-10-18T12:58:32.407Z,74.20
2022-10-18T13:01:08.122Z,73.80
2022-10-18T13:04:02.141Z,74.00
2022-10-18T13:07:18.417Z,73.70
2022-10-18T13:10:41.667Z,73.50
2022-10-18T13:13:41.757Z,73.30
2022-10-18T13:16:29.297Z,73.10
2022-10-18T13:19:00.469Z,73.10
2022-10-18T13:21:46.264Z,72.80
2022-10-18T13:24:30.222Z,72.80
2022-10-18T13:27:41.334Z,72.50
2022-10-18T13:30:45.162Z,72.60
2022-10-18T13:33:34.063Z,72.40
2022-10-18T13:36:05.607Z,72.40
2022-10-18T13:38:59.457Z,72.30
2022-10-18T13:41:34.289Z,72.30
2022-10-18T13:44:28.519Z,72.40
2022-10-18T13:47:16.818Z,72.30
2022-10-18T13:50:29.750Z,72.00
2022-10-18T13:53:37.776Z,72.10
2022-10-18T13:57:00.941Z,72.20
2022-10-18T13:59:49.644Z,72.20
2022-10-18T14:02:51.764Z,72.10
2022-10-18T14:05:51.630Z,71.90
2022-10-18T14:08:26.184Z,71.90
2022-10-18T14:11:04.138Z,72.20
2022-10-18T14:13:41.701Z,71.60
2022-10-18T14:16:29.101Z,71.60
2022-10-18T14:19:11.777Z,71.60
2022-10-18T14:21:46.275Z,72.00
2022-10-18T14:24:22.362Z,73.70
2022-10-18T14:27:17.805Z,72.70
2022-10-18T14:29:50.238Z,72.70
2022-10-18T14:32:32.061Z,73.10
2022-10-18T14:35:27.597Z,73.00
2022-10-18T14:37:54.284Z,73.10
2022-10-18T14:40:33.368Z,72.20
2022-10-18T14:43:11.171Z,72.10
2022-10-18T14:45:40.123Z,72.90
2022-10-18T14:48:16.822Z,72.30
2022-10-18T14:50:49.815Z,72.10
2022-10-18T14:53:22.113Z,72.20
2022-10-18T14:56:00.879Z,71.70
2022-10-18T14:58:29.376Z,71.20
2022-10-18T15:00:58.249Z,71.40
2022-10-18T15:03:28.332Z,71.50
2022-10-18T15:05:59.851Z,71.70
2022-10-18T15:08:37.710Z,71.60
2022-10-18T15:11:10.505Z,71.80
2022-10-18T15:13:49.905Z,72.00
2022-10-18T15:16:19.738Z,71.60
2022-10-18T15:19:03.447Z,72.00
2022-10-18T15:21:32.409Z,71.70
2022-10-18T15:24:29.648Z,71.80
2022-10-18T15:27:11.493Z,71.70
2022-10-18T15:29:39.870Z,72.40
2022-10-18T15:32:20.421Z,72.00
2022-10-18T15:34:49.007Z,71.80
2022-10-18T15:37:27.155Z,71.60
2022-10-18T15:40:35.326Z,71.80
2022-10-18T15:43:06.941Z,71.60
2022-10-18T15:45:39.105Z,71.50
2022-10-18T15:48:25.118Z,71.50
2022-10-18T15:50:57.127Z,71.40
2022-10-18T15:53:43.169Z,71.40
2022-10-18T15:56:33.944Z,71.70
2022-10-18T15:59:05.199Z,71.40
2022-10-18T16:01:38.153Z,71.40
2022-10-18T16:04:12.228Z,71.60
2022-10-18T16:06:40.498Z,71.90
2022-10-18T16:09:13.961Z,72.00
2022-10-18T16:11:43.649Z,71.40
2022-10-18T16:14:12.185Z,71.70
2022-10-18T16:16:41.388Z,71.60
2022-10-18T16:19:13.529Z,71.60
2022-10-18T16:21:42.112Z,71.10
2022-10-18T16:24:10.287Z,71.40
2022-10-18T16:26:39.002Z,71.70
2022-10-18T16:29:13.192Z,71.60
2022-10-18T16:31:42.046Z,71.30
2022-10-18T16:34:11.124Z,71.70
2022-10-18T16:36:39.750Z,71.50
2022-10-18T16:39:14.943Z,71.70
2022-10-18T16:41:43.838Z,71.40
2022-10-18T16:44:13.788Z,71.20
2022-10-18T16:46:43.672Z,71.50
2022-10-18T16:51:54.495Z,71.20
2022-10-18T16:54:23.506Z,71.50
2022-10-18T16:56:51.842Z,71.70
2022-10-18T16:59:26.827Z,71.50
2022-10-18T17:01:55.737Z,71.30
2022-10-18T17:04:24.235Z,71.60
2022-10-18T17:06:53.713Z,71.60
2022-10-18T17:09:21.876Z,71.50
2022-10-18T17:11:50.596Z,71.50
2022-10-18T17:14:19.145Z,70.90
2022-10-18T17:16:53.103Z,71.10
2022-10-18T17:19:24.526Z,71.20
2022-10-18T17:21:52.674Z,71.00
2022-10-18T17:24:21.069Z,70.80
2022-10-18T17:26:49.422Z,70.30
2022-10-18T17:29:18.144Z,70.50
2022-10-18T17:31:48.118Z,70.50
2022-10-18T17:34:21.198Z,70.70
2022-10-18T17:36:49.844Z,71.10
2022-10-18T17:39:18.612Z,70.60
2022-10-18T17:41:47.012Z,70.40
2022-10-18T17:44:15.214Z,70.90
2022-10-18T17:46:43.716Z,71.00
2022-10-18T17:49:14.054Z,71.10
2022-10-18T17:51:42.828Z,71.70
2022-10-18T17:54:11.466Z,71.50
2022-10-18T17:56:41.785Z,71.40
2022-10-18T17:59:10.287Z,71.90
2022-10-18T18:01:38.541Z,71.70
2022-10-18T18:04:07.108Z,72.90
2022-10-18T18:06:39.221Z,72.70
2022-10-18T18:09:10.748Z,71.70
2022-10-18T18:11:41.299Z,72.90
2022-10-18T18:14:09.714Z,71.90
2022-10-18T18:16:39.447Z,71.40
2022-10-18T18:19:10.091Z,71.00
2022-10-18T18:21:40.837Z,71.00
2022-10-18T18:24:10.824Z,70.70
2022-10-18T18:26:40.031Z,70.40
2022-10-18T18:29:08.922Z,70.60
2022-10-18T18:31:39.943Z,70.50
2022-10-18T18:34:11.872Z,70.90
2022-10-18T18:36:42.524Z,70.50
2022-10-18T18:39:21.425Z,70.50
2022-10-18T18:41:51.031Z,70.30
2022-10-18T18:44:21.734Z,70.30
2022-10-18T18:46:50.771Z,70.50
2022-10-18T18:49:19.132Z,71.00
2022-10-18T18:51:49.068Z,71.50
2022-10-18T18:54:17.694Z,71.00
2022-10-18T18:56:46.071Z,71.20
2022-10-18T18:59:15.736Z,71.40
2022-10-18T19:01:44.942Z,71.20
2022-10-18T19:04:13.458Z,75.10
2022-10-18T19:06:44.218Z,78.30
2022-10-18T19:09:25.183Z,77.30
2022-10-18T19:12:09.647Z,75.00
2022-10-18T19:14:38.015Z,74.80
2022-10-18T19:17:08.008Z,78.60
2022-10-18T19:19:39.459Z,75.70
2022-10-18T19:22:10.542Z,73.10
2022-10-18T19:24:40.263Z,72.60
2022-10-18T19:27:12.614Z,73.20
2022-10-18T19:29:41.677Z,72.60
2022-10-18T19:32:13.538Z,72.10
2022-10-18T19:34:42.547Z,73.50
2022-10-18T19:37:12.113Z,73.60
2022-10-18T19:39:42.239Z,72.40
2022-10-18T19:42:17.440Z,72.40
2022-10-18T19:44:49.459Z,72.20
2022-10-18T19:47:17.695Z,72.20
2022-10-18T19:49:46.256Z,72.20
2022-10-18T19:52:14.609Z,72.30
2022-10-18T19:54:45.029Z,72.80
2022-10-18T19:57:13.205Z,76.20
2022-10-18T20:02:15.971Z,73.00
2022-10-18T20:04:44.213Z,72.00
2022-10-18T20:07:12.599Z,71.70
2022-10-18T20:09:41.498Z,71.50
2022-10-18T20:12:11.181Z,71.90
2022-10-18T20:14:39.650Z,71.20
2022-10-18T20:17:12.019Z,71.10
2022-10-18T20:19:40.329Z,71.10
2022-10-18T20:22:08.727Z,71.00
2022-10-18T20:24:37.281Z,71.20
2022-10-18T20:27:06.110Z,72.00
2022-10-18T20:29:36.285Z,72.40
2022-10-18T20:32:04.997Z,72.70
2022-10-18T20:34:33.726Z,72.90
2022-10-18T20:37:02.023Z,72.50
2022-10-18T20:39:30.428Z,73.20
2022-10-18T20:41:58.721Z,72.90
2022-10-18T20:44:27.378Z,70.90
2022-10-18T20:46:56.920Z,71.40
2022-10-18T20:49:25.388Z,72.20
2022-10-18T20:51:53.871Z,70.90
2022-10-18T20:54:22.851Z,71.60
2022-10-18T20:56:51.028Z,71.50
2022-10-18T20:59:19.279Z,71.20
2022-10-18T21:01:48.102Z,71.40
2022-10-18T21:04:17.982Z,72.10
2022-10-18T21:06:46.482Z,71.20
2022-10-18T21:09:17.376Z,71.20
2022-10-18T21:11:49.344Z,70.80
2022-10-18T21:14:20.236Z,71.00
2022-10-18T21:16:49.830Z,71.10
2022-10-18T21:19:22.364Z,70.80
2022-10-18T21:21:53.266Z,70.90
2022-10-18T21:24:23.371Z,70.70
2022-10-18T21:26:52.139Z,70.60
2022-10-18T21:29:22.546Z,70.50
2022-10-18T21:31:54.720Z,70.80
2022-10-18T21:34:24.732Z,70.60
2022-10-18T21:36:53.038Z,70.80
2022-10-18T21:41:57.166Z,70.50
2022-10-18T21:44:25.627Z,70.80
2022-10-18T21:46:55.046Z,70.60
2022-10-18T21:49:26.220Z,70.80
2022-10-18T21:51:54.562Z,70.60
2022-10-18T21:54:22.791Z,71.00
2022-10-18T21:56:51.657Z,71.00
2022-10-18T21:59:19.931Z,71.00
2022-10-18T22:01:48.199Z,70.80
2022-10-18T22:04:23.267Z,71.00
2022-10-18T22:06:53.221Z,70.50
2022-10-18T22:09:22.740Z,70.50
2022-10-18T22:11:54.251Z,69.90
2022-10-18T22:14:23.128Z,69.80
2022-10-18T22:26:20.743Z,69.50
2022-10-18T22:28:55.462Z,70.60
2022-10-18T22:31:26.400Z,70.00
2022-10-18T22:33:56.489Z,70.10
2022-10-18T22:36:25.670Z,70.10
2022-10-18T22:38:54.386Z,70.20
2022-10-18T22:41:24.470Z,70.20
2022-10-18T22:43:53.587Z,70.40
2022-10-18T22:46:22.121Z,70.20
2022-10-18T22:48:51.512Z,70.80
2022-10-18T22:51:20.075Z,70.50
2022-10-18T22:53:48.395Z,70.70
2022-10-18T22:56:19.151Z,71.00
2022-10-18T22:58:49.260Z,71.30
2022-10-18T23:46:49.650Z,70.20
2022-10-18T23:49:17.856Z,70.80
2022-10-18T23:51:46.192Z,71.10
2022-10-18T23:54:14.517Z,71.00
2022-10-18T23:56:42.684Z,71.00
2022-10-18T23:59:10.906Z,71.10
